createdAt,value
2022-10-11T00:00:02.971Z,1015.51
2022-10-11T00:01:03.047Z,1015.54
2022-10-11T00:02:03.039Z,1015.61
2022-10-11T00:03:03.073Z,1015.58
2022-10-11T00:04:03.109Z,1015.63
2022-10-11T00:05:03.140Z,1015.63
2022-10-11T00:06:03.684Z,1015.65
2022-10-11T00:07:03.208Z,1015.69
2022-10-11T00:08:03.242Z,1015.74
2022-10-11T00:09:03.276Z,1015.76
2022-10-11T00:10:03.308Z,1015.78
2022-10-11T00:11:03.342Z,1015.80
2022-10-11T00:12:03.378Z,1015.81
2022-10-11T00:13:03.412Z,1015.81
2022-10-11T00:14:03.448Z,1015.81
2022-10-11T00:15:03.477Z,1015.83
2022-10-11T00:16:03.886Z,1015.88
2022-10-11T00:17:03.545Z,1015.89
2022-10-11T00:18:05.497Z,1015.85
2022-10-11T00:19:03.613Z,1015.94
2022-10-11T00:20:03.644Z,1015.94
2022-10-11T00:21:03.683Z,1015.97
2022-10-11T00:22:03.711Z,1016.00
2022-10-11T00:23:03.748Z,1016.02
2022-10-11T00:24:03.778Z,1016.04
2022-10-11T00:25:03.814Z,1016.04
2022-10-11T00:26:04.285Z,1016.07
2022-10-11T00:27:03.916Z,1016.10
2022-10-11T00:28:03.913Z,1016.14
2022-10-11T00:29:03.947Z,1016.15
2022-10-11T00:30:03.979Z,1016.12
2022-10-11T00:31:04.390Z,1016.20
2022-10-11T00:32:04.046Z,1016.17
2022-10-11T00:33:04.083Z,1016.20
2022-10-11T00:34:04.112Z,1016.22
2022-10-11T00:35:04.155Z,1016.21
2022-10-11T00:36:04.609Z,1016.25
2022-10-11T00:37:04.218Z,1016.26
2022-10-11T00:38:04.246Z,1016.28
2022-10-11T00:39:04.280Z,1016.30
2022-10-11T00:40:04.316Z,1016.32
2022-10-11T00:41:04.358Z,1016.29
2022-10-11T00:42:04.383Z,1016.32
2022-10-11T00:43:04.421Z,1016.31
2022-10-11T00:44:04.447Z,1016.30
2022-10-11T00:45:04.481Z,1016.32
2022-10-11T00:46:04.936Z,1016.33
2022-10-11T00:47:04.552Z,1016.37
2022-10-11T00:48:04.583Z,1016.33
2022-10-11T00:49:04.617Z,1016.36
2022-10-11T00:50:04.651Z,1016.35
2022-10-11T00:51:05.052Z,1016.33
2022-10-11T00:52:04.716Z,1016.40
2022-10-11T00:53:04.747Z,1016.39
2022-10-11T00:54:04.781Z,1016.41
2022-10-11T00:55:04.813Z,1016.41
2022-10-11T00:56:05.070Z,1016.46
2022-10-11T00:57:04.884Z,1016.42
2022-10-11T00:58:04.912Z,1016.45
2022-10-11T00:59:04.948Z,1016.40
2022-10-11T01:00:04.978Z,1016.46
2022-10-11T01:01:05.073Z,1016.43
2022-10-11T01:02:05.059Z,1016.43
2022-10-11T01:03:05.078Z,1016.45
2022-10-11T01:04:05.111Z,1016.46
2022-10-11T01:05:27.694Z,1016.48
2022-10-11T01:06:05.466Z,1016.51
2022-10-11T01:07:05.212Z,1016.50
2022-10-11T01:08:05.244Z,1016.51
2022-10-11T01:09:05.278Z,1016.52
2022-10-11T01:10:05.316Z,1016.51
2022-10-11T01:11:05.346Z,1016.56
2022-10-11T01:12:05.377Z,1016.55
2022-10-11T01:13:05.409Z,1016.58
2022-10-11T01:14:05.441Z,1016.59
2022-10-11T01:15:05.476Z,1016.60
2022-10-11T01:16:05.973Z,1016.62
2022-10-11T01:17:05.546Z,1016.65
2022-10-11T01:18:05.574Z,1016.63
2022-10-11T01:19:05.608Z,1016.62
2022-10-11T01:20:05.640Z,1016.63
2022-10-11T01:21:05.674Z,1016.65
2022-10-11T01:22:05.707Z,1016.71
2022-10-11T01:23:05.740Z,1016.70
2022-10-11T01:24:08.594Z,1016.70
2022-10-11T01:25:05.806Z,1016.69
2022-10-11T01:26:06.294Z,1016.73
2022-10-11T01:27:05.892Z,1016.72
2022-10-11T01:28:05.906Z,1016.75
2022-10-11T01:29:05.940Z,1016.73
2022-10-11T01:30:05.970Z,1016.75
2022-10-11T01:31:06.005Z,1016.76
2022-10-11T01:32:06.036Z,1016.75
2022-10-11T01:33:06.070Z,1016.78
2022-10-11T01:34:06.115Z,1016.77
2022-10-11T01:35:06.159Z,1016.78
2022-10-11T01:36:06.732Z,1016.81
2022-10-11T01:37:06.201Z,1016.81
2022-10-11T01:38:06.231Z,1016.84
2022-10-11T01:39:06.269Z,1016.82
2022-10-11T01:40:06.297Z,1016.85
2022-10-11T01:41:06.336Z,1016.86
2022-10-11T01:42:06.365Z,1016.86
2022-10-11T01:43:06.396Z,1016.89
2022-10-11T01:44:06.431Z,1016.86
2022-10-11T01:45:06.462Z,1016.87
2022-10-11T01:46:06.992Z,1016.85
2022-10-11T01:47:06.518Z,1016.87
2022-10-11T01:48:06.550Z,1016.86
2022-10-11T01:49:06.580Z,1016.83
2022-10-11T01:50:06.614Z,1016.84
2022-10-11T01:51:06.647Z,1016.91
2022-10-11T01:52:06.679Z,1016.89
2022-10-11T01:53:06.712Z,1016.89
2022-10-11T01:54:06.744Z,1016.90
2022-10-11T01:55:10.489Z,1016.90
2022-10-11T01:56:07.368Z,1016.93
2022-10-11T01:57:06.842Z,1016.95
2022-10-11T01:58:06.877Z,1016.98
2022-10-11T01:59:06.910Z,1017.00
2022-10-11T02:00:06.941Z,1016.97
2022-10-11T02:01:07.025Z,1016.97
2022-10-11T02:02:07.006Z,1016.98
2022-10-11T02:03:07.039Z,1016.99
2022-10-11T02:04:07.070Z,1017.07
2022-10-11T02:05:07.102Z,1017.02
2022-10-11T02:06:07.828Z,1017.05
2022-10-11T02:07:07.167Z,1017.07
2022-10-11T02:08:07.202Z,1017.05
2022-10-11T02:09:08.368Z,1017.07
2022-10-11T02:10:07.265Z,1017.10
2022-10-11T02:11:07.296Z,1017.09
2022-10-11T02:12:07.331Z,1017.12
2022-10-11T02:13:07.363Z,1017.17
2022-10-11T02:14:07.395Z,1017.17
2022-10-11T02:15:07.425Z,1017.15
2022-10-11T02:16:07.896Z,1017.16
2022-10-11T02:17:07.503Z,1017.17
2022-10-11T02:18:07.527Z,1017.17
2022-10-11T02:19:07.560Z,1017.20
2022-10-11T02:20:07.592Z,1017.18
2022-10-11T02:21:07.623Z,1017.22
2022-10-11T02:22:07.658Z,1017.21
2022-10-11T02:23:07.686Z,1017.25
2022-10-11T02:24:07.725Z,1017.20
2022-10-11T02:25:07.753Z,1017.23
2022-10-11T02:26:08.146Z,1017.24
2022-10-11T02:27:07.817Z,1017.23
2022-10-11T02:28:07.889Z,1017.23
2022-10-11T02:29:07.888Z,1017.22
2022-10-11T02:30:07.912Z,1017.23
2022-10-11T02:31:07.946Z,1017.26
2022-10-11T02:32:07.982Z,1017.19
2022-10-11T02:33:08.011Z,1017.24
2022-10-11T02:34:08.047Z,1017.21
2022-10-11T02:35:08.076Z,1017.23
2022-10-11T02:36:08.533Z,1017.22
2022-10-11T02:37:08.140Z,1017.26
2022-10-11T02:38:08.173Z,1017.24
2022-10-11T02:39:08.206Z,1017.23
2022-10-11T02:40:08.236Z,1017.26
2022-10-11T02:41:08.270Z,1017.29
2022-10-11T02:42:08.301Z,1017.28
2022-10-11T02:43:08.333Z,1017.31
2022-10-11T02:44:08.370Z,1017.30
2022-10-11T02:45:08.397Z,1017.28
2022-10-11T02:46:09.053Z,1017.31
2022-10-11T02:47:08.462Z,1017.35
2022-10-11T02:48:08.495Z,1017.32
2022-10-11T02:49:08.532Z,1017.36
2022-10-11T02:50:08.560Z,1017.34
2022-10-11T02:51:08.591Z,1017.40
2022-10-11T02:52:08.626Z,1017.38
2022-10-11T02:53:08.656Z,1017.39
2022-10-11T02:54:08.689Z,1017.39
2022-10-11T02:55:08.719Z,1017.40
2022-10-11T02:56:08.946Z,1017.39
2022-10-11T02:57:08.785Z,1017.41
2022-10-11T02:58:08.816Z,1017.42
2022-10-11T02:59:08.849Z,1017.44
2022-10-11T03:00:08.884Z,1017.46
2022-10-11T03:01:09.001Z,1017.44
2022-10-11T03:02:08.966Z,1017.45
2022-10-11T03:03:08.988Z,1017.47
2022-10-11T03:04:09.010Z,1017.47
2022-10-11T03:05:09.042Z,1017.45
2022-10-11T03:06:09.310Z,1017.45
2022-10-11T03:07:09.130Z,1017.51
2022-10-11T03:08:09.142Z,1017.56
2022-10-11T03:09:09.174Z,1017.57
2022-10-11T03:10:09.207Z,1017.60
2022-10-11T03:11:09.235Z,1017.61
2022-10-11T03:12:09.267Z,1017.64
2022-10-11T03:13:09.297Z,1017.63
2022-10-11T03:14:09.331Z,1017.65
2022-10-11T03:15:09.361Z,1017.66
2022-10-11T03:16:09.736Z,1017.68
2022-10-11T03:17:34.567Z,1017.69
2022-10-11T03:18:09.458Z,1017.71
2022-10-11T03:19:09.492Z,1017.70
2022-10-11T03:20:09.528Z,1017.75
2022-10-11T03:21:09.554Z,1017.76
2022-10-11T03:22:09.586Z,1017.76
2022-10-11T03:23:09.618Z,1017.73
2022-10-11T03:24:09.655Z,1017.77
2022-10-11T03:25:09.683Z,1017.82
2022-10-11T03:26:09.764Z,1017.82
2022-10-11T03:27:09.751Z,1017.83
2022-10-11T03:28:09.833Z,1017.85
2022-10-11T03:29:09.810Z,1017.86
2022-10-11T03:30:09.842Z,1017.92
2022-10-11T03:31:09.873Z,1017.89
2022-10-11T03:32:09.907Z,1017.92
2022-10-11T03:33:09.942Z,1017.94
2022-10-11T03:34:09.973Z,1017.94
2022-10-11T03:35:10.002Z,1017.93
2022-10-11T03:36:10.035Z,1017.97
2022-10-11T03:37:10.068Z,1017.97
2022-10-11T03:38:12.895Z,1017.96
2022-10-11T03:39:10.129Z,1017.95
2022-10-11T03:40:10.165Z,1017.95
2022-10-11T03:41:10.196Z,1017.96
2022-10-11T03:42:10.226Z,1017.98
2022-10-11T03:43:10.260Z,1017.98
2022-10-11T03:44:10.294Z,1017.99
2022-10-11T03:45:10.321Z,1018.00
2022-10-11T03:46:10.355Z,1018.05
2022-10-11T03:47:10.385Z,1018.08
2022-10-11T03:48:10.417Z,1018.06
2022-10-11T03:49:10.451Z,1018.07
2022-10-11T03:50:10.483Z,1018.06
2022-10-11T03:51:10.515Z,1018.07
2022-10-11T03:52:10.546Z,1018.08
2022-10-11T03:53:10.578Z,1018.05
2022-10-11T03:54:10.610Z,1018.06
2022-10-11T03:55:10.641Z,1018.05
2022-10-11T03:56:11.133Z,1018.08
2022-10-11T03:57:10.706Z,1018.10
2022-10-11T03:58:10.737Z,1018.11
2022-10-11T03:59:10.768Z,1018.16
2022-10-11T04:00:10.804Z,1018.15
2022-10-11T04:01:10.833Z,1018.14
2022-10-11T04:02:10.917Z,1018.18
2022-10-11T04:03:10.896Z,1018.20
2022-10-11T04:04:10.927Z,1018.24
2022-10-11T04:05:10.963Z,1018.22
2022-10-11T04:06:11.001Z,1018.26
2022-10-11T04:07:11.024Z,1018.20
2022-10-11T04:08:12.391Z,1018.27
2022-10-11T04:09:11.090Z,1018.21
2022-10-11T04:10:11.121Z,1018.27
2022-10-11T04:11:11.149Z,1018.25
2022-10-11T04:12:11.180Z,1018.29
2022-10-11T04:13:11.214Z,1018.27
2022-10-11T04:14:11.246Z,1018.30
2022-10-11T04:15:11.277Z,1018.31
2022-10-11T04:16:11.309Z,1018.35
2022-10-11T04:17:11.343Z,1018.37
2022-10-11T04:18:11.370Z,1018.33
2022-10-11T04:19:11.411Z,1018.38
2022-10-11T04:20:11.436Z,1018.37
2022-10-11T04:21:11.469Z,1018.40
2022-10-11T04:22:11.500Z,1018.39
2022-10-11T04:23:11.533Z,1018.40
2022-10-11T04:24:11.563Z,1018.43
2022-10-11T04:25:11.599Z,1018.44
2022-10-11T04:26:11.628Z,1018.45
2022-10-11T04:27:11.658Z,1018.47
2022-10-11T04:28:11.731Z,1018.50
2022-10-11T04:29:11.723Z,1018.49
2022-10-11T04:30:11.754Z,1018.51
2022-10-11T04:31:11.784Z,1018.52
2022-10-11T04:32:11.817Z,1018.52
2022-10-11T04:33:11.850Z,1018.52
2022-10-11T04:34:11.879Z,1018.50
2022-10-11T04:35:11.920Z,1018.54
2022-10-11T04:36:11.945Z,1018.53
2022-10-11T04:37:11.977Z,1018.58
2022-10-11T04:38:12.008Z,1018.60
2022-10-11T04:39:12.040Z,1018.62
2022-10-11T04:40:12.071Z,1018.65
2022-10-11T04:41:12.103Z,1018.68
2022-10-11T04:42:12.133Z,1018.67
2022-10-11T04:43:12.166Z,1018.71
2022-10-11T04:44:12.197Z,1018.67
2022-10-11T04:45:12.229Z,1018.71
2022-10-11T04:46:12.259Z,1018.72
2022-10-11T04:47:12.294Z,1018.69
2022-10-11T04:48:12.322Z,1018.73
2022-10-11T04:49:12.359Z,1018.72
2022-10-11T04:50:12.385Z,1018.75
2022-10-11T04:51:12.433Z,1018.77
2022-10-11T04:52:12.453Z,1018.78
2022-10-11T04:53:12.488Z,1018.80
2022-10-11T04:54:12.516Z,1018.83
2022-10-11T04:55:12.546Z,1018.84
2022-10-11T04:56:12.578Z,1018.85
2022-10-11T04:57:12.608Z,1018.81
2022-10-11T04:58:12.638Z,1018.82
2022-10-11T04:59:12.676Z,1018.87
2022-10-11T05:00:12.703Z,1018.86
2022-10-11T05:01:12.734Z,1018.87
2022-10-11T05:02:12.844Z,1018.85
2022-10-11T05:03:12.799Z,1018.86
2022-10-11T05:04:12.831Z,1018.90
2022-10-11T05:05:12.862Z,1018.88
2022-10-11T05:06:13.450Z,1018.88
2022-10-11T05:07:12.925Z,1018.89
2022-10-11T05:08:12.957Z,1018.92
2022-10-11T05:09:12.988Z,1018.92
2022-10-11T05:10:13.017Z,1018.91
2022-10-11T05:11:15.625Z,1018.96
2022-10-11T05:12:13.081Z,1018.96
2022-10-11T05:13:13.114Z,1019.00
2022-10-11T05:14:13.144Z,1019.04
2022-10-11T05:15:13.176Z,1018.98
2022-10-11T05:16:13.603Z,1019.03
2022-10-11T05:17:13.243Z,1019.02
2022-10-11T05:18:13.270Z,1019.01
2022-10-11T05:19:13.303Z,1019.02
2022-10-11T05:20:13.334Z,1019.07
2022-10-11T05:21:13.367Z,1019.07
2022-10-11T05:22:13.398Z,1019.07
2022-10-11T05:23:13.431Z,1019.06
2022-10-11T05:24:13.460Z,1019.10
2022-10-11T05:25:13.493Z,1019.07
2022-10-11T05:26:13.525Z,1019.11
2022-10-11T05:27:13.556Z,1019.11
2022-10-11T05:28:13.646Z,1019.19
2022-10-11T05:29:13.620Z,1019.13
2022-10-11T05:30:13.649Z,1019.16
2022-10-11T05:31:13.682Z,1019.18
2022-10-11T05:32:13.713Z,1019.21
2022-10-11T05:33:13.745Z,1019.19
2022-10-11T05:34:13.777Z,1019.23
2022-10-11T05:35:13.807Z,1019.20
2022-10-11T05:36:13.839Z,1019.23
2022-10-11T05:37:13.874Z,1019.22
2022-10-11T05:38:13.902Z,1019.28
2022-10-11T05:39:13.935Z,1019.27
2022-10-11T05:40:13.966Z,1019.31
2022-10-11T05:41:13.999Z,1019.31
2022-10-11T05:42:14.032Z,1019.31
2022-10-11T05:43:14.060Z,1019.34
2022-10-11T05:44:14.090Z,1019.35
2022-10-11T05:45:14.123Z,1019.40
2022-10-11T05:46:14.153Z,1019.36
2022-10-11T05:47:14.184Z,1019.40
2022-10-11T05:48:14.218Z,1019.36
2022-10-11T05:49:14.250Z,1019.44
2022-10-11T05:50:14.279Z,1019.45
2022-10-11T05:51:14.317Z,1019.43
2022-10-11T05:52:14.348Z,1019.42
2022-10-11T05:53:14.377Z,1019.45
2022-10-11T05:54:14.405Z,1019.46
2022-10-11T05:55:14.442Z,1019.50
2022-10-11T05:56:14.468Z,1019.53
2022-10-11T05:57:14.504Z,1019.50
2022-10-11T05:58:14.532Z,1019.55
2022-10-11T05:59:14.563Z,1019.57
2022-10-11T06:00:14.597Z,1019.58
2022-10-11T06:01:14.694Z,1019.61
2022-10-11T06:02:14.657Z,1019.58
2022-10-11T06:03:14.691Z,1019.61
2022-10-11T06:04:14.721Z,1019.59
2022-10-11T06:05:14.754Z,1019.56
2022-10-11T06:06:14.787Z,1019.59
2022-10-11T06:07:14.817Z,1019.59
2022-10-11T06:08:14.848Z,1019.55
2022-10-11T06:09:14.879Z,1019.63
2022-10-11T06:10:14.912Z,1019.63
2022-10-11T06:11:14.946Z,1019.64
2022-10-11T06:12:14.973Z,1019.65
2022-10-11T06:13:15.006Z,1019.69
2022-10-11T06:14:15.038Z,1019.69
2022-10-11T06:15:15.081Z,1019.68
2022-10-11T06:16:15.099Z,1019.70
2022-10-11T06:17:15.133Z,1019.71
2022-10-11T06:18:15.169Z,1019.72
2022-10-11T06:19:15.195Z,1019.73
2022-10-11T06:20:15.224Z,1019.75
2022-10-11T06:21:15.259Z,1019.73
2022-10-11T06:22:15.288Z,1019.77
2022-10-11T06:23:15.320Z,1019.77
2022-10-11T06:24:15.351Z,1019.81
2022-10-11T06:25:15.391Z,1019.78
2022-10-11T06:26:15.414Z,1019.82
2022-10-11T06:27:15.446Z,1019.85
2022-10-11T06:28:15.586Z,1019.86
2022-10-11T06:29:15.512Z,1019.85
2022-10-11T06:30:15.545Z,1019.88
2022-10-11T06:31:15.573Z,1019.92
2022-10-11T06:32:15.611Z,1019.90
2022-10-11T06:33:15.637Z,1019.92
2022-10-11T06:34:15.672Z,1019.90
2022-10-11T06:35:15.700Z,1019.95
2022-10-11T06:36:15.730Z,1019.96
2022-10-11T06:37:15.762Z,1019.95
2022-10-11T06:38:15.795Z,1019.96
2022-10-11T06:39:15.825Z,1020.00
2022-10-11T06:40:15.857Z,1020.01
2022-10-11T06:41:15.889Z,1019.99
2022-10-11T06:42:15.920Z,1020.00
2022-10-11T06:43:15.953Z,1020.01
2022-10-11T06:44:15.982Z,1020.03
2022-10-11T06:45:16.020Z,1020.03
2022-10-11T06:46:16.046Z,1020.05
2022-10-11T06:47:16.076Z,1020.06
2022-10-11T06:48:16.107Z,1020.06
2022-10-11T06:49:20.717Z,1020.08
2022-10-11T06:50:16.170Z,1020.12
2022-10-11T06:51:16.204Z,1020.10
2022-10-11T06:52:16.235Z,1020.11
2022-10-11T06:53:16.267Z,1020.11
2022-10-11T06:54:16.297Z,1020.14
2022-10-11T06:55:16.330Z,1020.14
2022-10-11T06:56:16.363Z,1020.18
2022-10-11T06:57:16.394Z,1020.22
2022-10-11T06:58:16.424Z,1020.19
2022-10-11T06:59:16.455Z,1020.21
2022-10-11T07:00:16.487Z,1020.25
2022-10-11T07:01:16.606Z,1020.22
2022-10-11T07:02:16.551Z,1020.27
2022-10-11T07:03:16.582Z,1020.25
2022-10-11T07:04:16.613Z,1020.26
2022-10-11T07:05:16.649Z,1020.28
2022-10-11T07:06:16.676Z,1020.32
2022-10-11T07:07:16.710Z,1020.36
2022-10-11T07:08:16.744Z,1020.32
2022-10-11T07:09:16.773Z,1020.33
2022-10-11T07:10:16.804Z,1020.32
2022-10-11T07:11:16.838Z,1020.35
2022-10-11T07:12:16.881Z,1020.37
2022-10-11T07:13:17.425Z,1020.38
2022-10-11T07:14:16.931Z,1020.41
2022-10-11T07:15:16.963Z,1020.42
2022-10-11T07:16:16.991Z,1020.43
2022-10-11T07:17:17.025Z,1020.43
2022-10-11T07:18:17.056Z,1020.41
2022-10-11T07:19:17.093Z,1020.48
2022-10-11T07:20:17.119Z,1020.47
2022-10-11T07:21:17.152Z,1020.49
2022-10-11T07:22:17.182Z,1020.53
2022-10-11T07:23:17.215Z,1020.56
2022-10-11T07:24:17.247Z,1020.56
2022-10-11T07:25:17.277Z,1020.61
2022-10-11T07:26:17.351Z,1020.60
2022-10-11T07:27:17.341Z,1020.60
2022-10-11T07:28:17.397Z,1020.61
2022-10-11T07:29:17.406Z,1020.65
2022-10-11T07:30:17.437Z,1020.63
2022-10-11T07:31:17.471Z,1020.67
2022-10-11T07:32:17.499Z,1020.65
2022-10-11T07:33:17.536Z,1020.70
2022-10-11T07:34:17.562Z,1020.74
2022-10-11T07:35:17.595Z,1020.68
2022-10-11T07:36:17.627Z,1020.73
2022-10-11T07:37:17.659Z,1020.73
2022-10-11T07:38:17.693Z,1020.73
2022-10-11T07:39:17.721Z,1020.75
2022-10-11T07:40:17.754Z,1020.75
2022-10-11T07:41:17.786Z,1020.77
2022-10-11T07:42:17.825Z,1020.79
2022-10-11T07:43:17.850Z,1020.83
2022-10-11T07:44:17.880Z,1020.83
2022-10-11T07:45:17.914Z,1020.86
2022-10-11T07:46:17.967Z,1020.84
2022-10-11T07:47:17.976Z,1020.89
2022-10-11T07:48:18.011Z,1020.91
2022-10-11T07:49:18.051Z,1020.92
2022-10-11T07:50:18.074Z,1020.88
2022-10-11T07:51:18.107Z,1020.87
2022-10-11T07:52:18.139Z,1020.93
2022-10-11T07:53:18.170Z,1020.93
2022-10-11T07:54:18.200Z,1020.95
2022-10-11T07:55:18.231Z,1020.97
2022-10-11T07:56:18.262Z,1020.94
2022-10-11T07:57:18.298Z,1020.92
2022-10-11T07:58:18.331Z,1020.95
2022-10-11T07:59:18.360Z,1020.94
2022-10-11T08:00:18.392Z,1020.98
2022-10-11T08:01:18.498Z,1020.96
2022-10-11T08:02:18.455Z,1020.99
2022-10-11T08:03:18.487Z,1020.99
2022-10-11T08:04:18.528Z,1021.01
2022-10-11T08:05:18.554Z,1020.99
2022-10-11T08:06:18.586Z,1021.01
2022-10-11T08:07:18.619Z,1021.02
2022-10-11T08:08:18.671Z,1021.02
2022-10-11T08:09:18.691Z,1021.05
2022-10-11T08:10:18.713Z,1021.07
2022-10-11T08:11:18.752Z,1021.00
2022-10-11T08:12:18.781Z,1020.99
2022-10-11T08:13:18.809Z,1020.98
2022-10-11T08:14:18.844Z,1020.98
2022-10-11T08:15:18.874Z,1020.98
2022-10-11T08:16:18.907Z,1020.95
2022-10-11T08:17:18.939Z,1020.98
2022-10-11T08:18:18.971Z,1020.98
2022-10-11T08:19:19.003Z,1020.99
2022-10-11T08:20:19.036Z,1020.97
2022-10-11T08:21:19.067Z,1020.97
2022-10-11T08:22:19.104Z,1020.97
2022-10-11T08:23:19.162Z,1021.00
2022-10-11T08:24:19.167Z,1021.05
2022-10-11T08:25:19.208Z,1021.04
2022-10-11T08:26:19.233Z,1021.05
2022-10-11T08:27:19.271Z,1021.03
2022-10-11T08:28:19.381Z,1021.07
2022-10-11T08:29:19.326Z,1021.05
2022-10-11T08:30:19.361Z,1021.08
2022-10-11T08:31:19.392Z,1021.06
2022-10-11T08:32:19.426Z,1021.11
2022-10-11T08:33:19.465Z,1021.08
2022-10-11T08:34:19.490Z,1021.05
2022-10-11T08:35:19.534Z,1021.09
2022-10-11T08:36:19.564Z,1021.13
2022-10-11T08:37:19.589Z,1021.07
2022-10-11T08:38:19.621Z,1021.08
2022-10-11T08:39:19.654Z,1021.08
2022-10-11T08:40:19.687Z,1021.09
2022-10-11T08:41:19.737Z,1021.13
2022-10-11T08:42:19.758Z,1021.12
2022-10-11T08:43:19.785Z,1021.14
2022-10-11T08:44:19.820Z,1021.15
2022-10-11T08:45:19.851Z,1021.20
2022-10-11T08:46:19.886Z,1021.22
2022-10-11T08:47:19.917Z,1021.20
2022-10-11T08:48:19.951Z,1021.22
2022-10-11T08:49:19.983Z,1021.19
2022-10-11T08:50:20.019Z,1021.25
2022-10-11T08:51:20.049Z,1021.19
2022-10-11T08:52:20.086Z,1021.21
2022-10-11T08:53:20.116Z,1021.23
2022-10-11T08:54:20.148Z,1021.28
2022-10-11T08:55:20.182Z,1021.23
2022-10-11T08:56:20.216Z,1021.29
2022-10-11T08:57:20.250Z,1021.36
2022-10-11T08:58:20.284Z,1021.27
2022-10-11T08:59:20.316Z,1021.31
2022-10-11T09:00:20.442Z,1021.33
2022-10-11T09:01:20.450Z,1021.37
2022-10-11T09:02:20.425Z,1021.34
2022-10-11T09:03:20.465Z,1021.40
2022-10-11T09:04:20.489Z,1021.37
2022-10-11T09:05:20.535Z,1021.41
2022-10-11T09:06:20.560Z,1021.35
2022-10-11T09:07:20.592Z,1021.38
2022-10-11T09:08:20.628Z,1021.37
2022-10-11T09:09:20.666Z,1021.38
2022-10-11T09:10:20.774Z,1021.38
2022-10-11T09:11:20.733Z,1021.38
2022-10-11T09:12:20.768Z,1021.36
2022-10-11T09:13:20.803Z,1021.40
2022-10-11T09:14:20.845Z,1021.36
2022-10-11T09:15:20.876Z,1021.38
2022-10-11T09:16:20.921Z,1021.38
2022-10-11T09:17:20.949Z,1021.39
2022-10-11T09:18:20.987Z,1021.38
2022-10-11T09:19:21.019Z,1021.39
2022-10-11T09:20:21.056Z,1021.40
2022-10-11T09:21:21.093Z,1021.41
2022-10-11T09:22:21.131Z,1021.40
2022-10-11T09:23:21.163Z,1021.36
2022-10-11T09:24:21.202Z,1021.41
2022-10-11T09:25:21.243Z,1021.42
2022-10-11T09:26:21.273Z,1021.38
2022-10-11T09:27:29.071Z,1021.39
2022-10-11T09:28:21.382Z,1021.39
2022-10-11T09:29:21.386Z,1021.38
2022-10-11T09:30:21.420Z,1021.37
2022-10-11T09:31:21.455Z,1021.36
2022-10-11T09:32:21.494Z,1021.36
2022-10-11T09:33:21.530Z,1021.40
2022-10-11T09:34:21.568Z,1021.39
2022-10-11T09:35:21.603Z,1021.40
2022-10-11T09:36:21.650Z,1021.37
2022-10-11T09:37:21.677Z,1021.40
2022-10-11T09:38:21.713Z,1021.38
2022-10-11T09:39:28.948Z,1021.35
2022-10-11T09:41:25.807Z,1021.40
2022-10-11T09:42:25.835Z,1021.40
2022-10-11T09:44:29.895Z,1021.34
2022-10-11T09:45:29.924Z,1021.37
2022-10-11T09:47:33.982Z,1021.42
2022-10-11T09:48:34.013Z,1021.41
2022-10-11T09:50:38.126Z,1021.40
2022-10-11T09:51:38.099Z,1021.39
2022-10-11T09:53:42.156Z,1021.38
2022-10-11T09:54:42.187Z,1021.41
2022-10-11T09:56:35.160Z,1021.44
2022-10-11T09:57:35.191Z,1021.42
2022-10-11T09:59:39.276Z,1021.49
2022-10-11T10:00:39.282Z,1021.40
2022-10-11T10:02:43.364Z,1021.47
2022-10-11T10:03:43.366Z,1021.51
2022-10-11T10:05:47.456Z,1021.56
2022-10-11T10:06:47.455Z,1021.50
2022-10-11T10:08:51.513Z,1021.58
2022-10-11T10:09:51.547Z,1021.63
2022-10-11T10:11:55.605Z,1021.67
2022-10-11T10:12:55.635Z,1021.64
2022-10-11T10:14:59.694Z,1021.68
2022-10-11T10:15:59.725Z,1021.70
2022-10-11T10:18:03.784Z,1021.72
2022-10-11T10:19:03.816Z,1021.71
2022-10-11T10:21:07.887Z,1021.78
2022-10-11T10:22:07.915Z,1021.74
2022-10-11T10:24:11.981Z,1021.80
2022-10-11T10:25:12.005Z,1021.81
2022-10-11T10:27:16.180Z,1021.85
2022-10-11T10:28:16.224Z,1021.86
2022-10-11T10:30:20.179Z,1021.77
2022-10-11T10:31:20.219Z,1021.77
2022-10-11T10:33:24.293Z,1021.78
2022-10-11T10:34:24.331Z,1021.76
2022-10-11T10:36:17.752Z,1021.87
2022-10-11T10:37:17.576Z,1021.70
2022-10-11T10:39:21.469Z,1021.82
2022-10-11T10:40:21.480Z,1021.85
2022-10-11T10:42:25.573Z,1021.80
2022-10-11T10:43:25.615Z,1021.81
2022-10-11T10:45:29.749Z,1021.78
2022-10-11T10:46:29.787Z,1021.74
2022-10-11T10:48:53.754Z,1021.81
2022-10-11T10:49:53.147Z,1021.73
2022-10-11T10:51:38.015Z,1021.80
2022-10-11T10:52:38.015Z,1021.78
2022-10-11T10:54:42.091Z,1021.73
2022-10-11T10:55:42.128Z,1021.78
2022-10-11T10:57:46.234Z,1021.79
2022-10-11T10:58:46.244Z,1021.85
2022-10-11T11:00:50.317Z,1021.66
2022-10-11T11:01:50.410Z,1021.71
2022-10-11T11:03:54.436Z,1021.68
2022-10-11T11:04:54.524Z,1021.79
2022-10-11T11:06:58.557Z,1021.83
2022-10-11T11:07:58.590Z,1021.81
2022-10-11T11:10:02.665Z,1021.79
2022-10-11T11:11:02.700Z,1021.68
2022-10-11T11:13:06.822Z,1021.67
2022-10-11T11:14:06.812Z,1021.63
2022-10-11T11:15:59.806Z,1021.61
2022-10-11T11:16:59.840Z,1021.65
2022-10-11T11:19:04.334Z,1021.69
2022-10-11T11:20:03.948Z,1021.69
2022-10-11T11:22:08.018Z,1021.64
2022-10-11T11:23:08.059Z,1021.70
2022-10-11T11:25:12.128Z,1021.66
2022-10-11T11:26:12.164Z,1021.64
2022-10-11T11:28:05.148Z,1021.62
2022-10-11T11:29:05.186Z,1021.60
2022-10-11T11:31:09.290Z,1021.65
2022-10-11T11:32:09.319Z,1021.75
2022-10-11T11:34:13.385Z,1021.68
2022-10-11T11:35:13.423Z,1021.71
2022-10-11T11:37:17.492Z,1021.65
2022-10-11T11:38:17.526Z,1021.61
2022-10-11T11:40:21.591Z,1021.68
2022-10-11T11:41:21.630Z,1021.65
2022-10-11T11:43:25.704Z,1021.64
2022-10-11T11:44:27.626Z,1021.64
2022-10-11T11:46:18.727Z,1021.62
2022-10-11T11:47:18.789Z,1021.69
2022-10-11T11:49:22.837Z,1021.67
2022-10-11T11:50:23.019Z,1021.59
2022-10-11T11:52:26.972Z,1021.66
2022-10-11T11:53:26.978Z,1021.68
2022-10-11T11:55:31.079Z,1021.60
2022-10-11T11:56:31.089Z,1021.65
2022-10-11T11:58:35.187Z,1021.53
2022-10-11T11:59:35.192Z,1021.58
2022-10-11T12:01:39.308Z,1021.50
2022-10-11T12:02:39.294Z,1021.59
2022-10-11T12:04:43.365Z,1021.51
2022-10-11T12:05:43.399Z,1021.53
2022-10-11T12:07:47.700Z,1021.54
2022-10-11T12:08:47.514Z,1021.52
2022-10-11T12:10:51.588Z,1021.51
2022-10-11T12:11:51.633Z,1021.52
2022-10-11T12:13:55.691Z,1021.52
2022-10-11T12:14:55.732Z,1021.56
2022-10-11T12:16:59.814Z,1021.53
2022-10-11T12:17:59.823Z,1021.53
2022-10-11T12:20:03.889Z,1021.44
2022-10-11T12:21:04.322Z,1021.47
2022-10-11T12:23:08.016Z,1021.50
2022-10-11T12:24:08.020Z,1021.55
2022-10-11T12:26:01.000Z,1021.50
2022-10-11T12:27:01.031Z,1021.52
2022-10-11T12:29:05.121Z,1021.52
2022-10-11T12:30:05.125Z,1021.52
2022-10-11T12:32:09.425Z,1021.47
2022-10-11T12:33:09.426Z,1021.48
2022-10-11T12:35:13.514Z,1021.47
2022-10-11T12:36:13.889Z,1021.47
2022-10-11T12:38:17.584Z,1021.45
2022-10-11T12:39:17.612Z,1021.44
2022-10-11T12:41:21.670Z,1021.44
2022-10-11T12:42:21.702Z,1021.36
2022-10-11T12:44:25.763Z,1021.43
2022-10-11T12:45:25.795Z,1021.44
2022-10-11T12:47:29.853Z,1021.36
2022-10-11T12:48:34.887Z,1021.36
2022-10-11T12:50:33.953Z,1021.40
2022-10-11T12:51:33.984Z,1021.36
2022-10-11T12:53:38.042Z,1021.32
2022-10-11T12:54:38.084Z,1021.33
2022-10-11T12:56:31.093Z,1021.36
2022-10-11T12:57:31.097Z,1021.34
2022-10-11T12:59:35.157Z,1021.36
2022-10-11T13:00:35.194Z,1021.37
2022-10-11T13:02:39.278Z,1021.40
2022-10-11T13:03:39.282Z,1021.39
2022-10-11T13:05:45.481Z,1021.38
2022-10-11T13:06:43.374Z,1021.39
2022-10-11T13:08:47.435Z,1021.43
2022-10-11T13:09:49.216Z,1021.40
2022-10-11T13:11:51.526Z,1021.43
2022-10-11T13:12:51.566Z,1021.45
2022-10-11T13:14:55.616Z,1021.48
2022-10-11T13:15:55.650Z,1021.55
2022-10-11T13:17:59.710Z,1021.54
2022-10-11T13:18:59.742Z,1021.45
2022-10-11T13:21:04.180Z,1021.45
2022-10-11T13:22:03.833Z,1021.51